Kezdőlap
METAR-TAF:

METAR-TAF

Repülőterek :

Passo Rolle, Olaszország

földrajzi szélesség: 46-18N, földrajzi hosszúság: 011-47E, magasság: 2004 m

Jelenlegi meteorológiai megfigyelések

A jelentés 55 perccel ezelõtt készült, 12:55 UTC
Nyugat-délnyugati szél 7 kt
Hőmérséklet 1°C
Páratartalom 34%
Légköri nyomás 1019 hPa
Látótávolság 10 km, vagy több
Kevés felhő 3000 lábon

METAR: LIVR 181255Z 25007KT 9999 FEW030 01/M13 Q1019 RMK FEW MON LIB VIS MIN 9999

Idő: 14:50 (13:50 UTC)


TAF: hiányzik

Meteorológiai megfigyelések és előrejelzések több, mint 4000 repülőtéren (METAR és TAF jelentéseket).

A térképen piros és sárga pontok jelzik az elérhető meteorológiai állomásokat.

Mozgassa az egeret a pont fölött, hogy megjelenjen az állomás neve.

Azután kattintson az időjárási megfigyelések és előrejelzések megtekintéséhez.

A térkép megváltoztatása: kattintson a fekete keresztel jelölt zöld gombra ráközelítéshez, a vonallal jelölt zöld gombra távolításhoz, vagy a zöld nyilakra a szomszédos térképek eléréséhez.


METAR-TAF: